Time;durP1;ratioP1;P1;durP2;ratioP2;P2;SDS_P1;SDS_P2;PMS_P1;PMS_P2;Temp;Humidity;BMP_temperature;BMP_pressure;BME280_temperature;BME280_humidity;BME280_pressure;Samples;Min_cycle;Max_cycle;Signal;HPM_P1;HPM_P2
2022/01/02 00:01:21;;;;;;;5.80;4.40;;;3.70;99.90;;;;;;5090068;28;20224;-77
2022/01/02 00:03:54;;;;;;;6.75;4.43;;;3.70;99.90;;;;;;5088711;28;20199;-77
2022/01/02 00:06:25;;;;;;;8.52;4.97;;;3.60;99.90;;;;;;5090236;28;20236;-78
2022/01/02 00:09:01;;;;;;;8.90;4.75;;;3.60;99.90;;;;;;5090066;28;20148;-78
2022/01/02 00:11:27;;;;;;;7.57;4.50;;;3.50;99.90;;;;;;5089558;28;20172;-77
2022/01/02 00:13:59;;;;;;;14.00;5.10;;;3.60;99.90;;;;;;5089853;28;20267;-76
2022/01/02 00:16:27;;;;;;;9.43;4.93;;;3.80;99.90;;;;;;5089974;28;20156;-77
2022/01/02 00:19:06;;;;;;;8.00;4.60;;;3.70;99.90;;;;;;5089874;28;20549;-77
2022/01/02 00:21:33;;;;;;;6.97;4.50;;;3.50;99.90;;;;;;5089493;28;20536;-76
2022/01/02 00:24:05;;;;;;;12.70;5.55;;;3.50;99.90;;;;;;5089722;28;20187;-76
2022/01/02 00:26:43;;;;;;;9.05;4.50;;;3.30;99.90;;;;;;5088393;28;20218;-75
2022/01/02 00:29:11;;;;;;;8.75;3.72;;;3.20;99.90;;;;;;5078403;28;20252;-76
2022/01/02 00:31:39;;;;;;;7.40;4.20;;;3.10;99.90;;;;;;5082269;28;20167;-75
2022/01/02 00:34:06;;;;;;;6.72;4.85;;;3.00;99.90;;;;;;5089550;28;20211;-75
2022/01/02 00:36:33;;;;;;;14.38;4.90;;;3.10;99.90;;;;;;5089508;28;20168;-75
2022/01/02 00:38:59;;;;;;;9.98;4.72;;;3.00;99.90;;;;;;5087985;28;20171;-75
2022/01/02 00:42:07;;;;;;;7.28;4.25;;;2.90;99.90;;;;;;5087142;28;20160;-75
2022/01/02 00:44:45;;;;;;;9.57;4.13;;;2.80;99.90;;;;;;5087059;28;20588;-75
2022/01/02 00:47:31;;;;;;;8.60;5.10;;;2.80;99.90;;;;;;5070237;28;20222;-75
2022/01/02 00:50:00;;;;;;;6.28;4.18;;;2.80;99.90;;;;;;5070416;28;20175;-75
2022/01/02 00:52:27;;;;;;;7.30;4.18;;;2.80;99.90;;;;;;5086862;28;20191;-75
2022/01/02 00:54:55;;;;;;;12.30;5.68;;;2.80;99.90;;;;;;5087301;28;20204;-75
2022/01/02 00:57:30;;;;;;;11.95;5.00;;;2.80;99.90;;;;;;5087092;28;20189;-75
2022/01/02 01:00:07;;;;;;;9.20;5.65;;;2.70;99.90;;;;;;5087109;28;20276;-75
2022/01/02 01:02:39;;;;;;;12.63;7.18;;;2.60;99.90;;;;;;5070304;28;20176;-75
2022/01/02 01:05:07;;;;;;;9.77;6.05;;;2.50;99.90;;;;;;5070189;28;20164;-74
2022/01/02 01:07:34;;;;;;;9.55;5.43;;;2.40;99.90;;;;;;5070118;28;20180;-75
2022/01/02 01:10:03;;;;;;;8.68;6.03;;;2.30;99.90;;;;;;5087028;28;20168;-75
2022/01/02 01:12:30;;;;;;;14.60;6.93;;;2.10;99.90;;;;;;5086570;28;20184;-75
2022/01/02 01:14:56;;;;;;;10.18;6.78;;;2.10;99.90;;;;;;5086862;28;20225;-75
2022/01/02 01:17:22;;;;;;;11.82;6.38;;;2.00;99.90;;;;;;5086976;28;20160;-74
2022/01/02 01:19:51;;;;;;;12.30;6.93;;;2.00;99.90;;;;;;5080378;28;20289;-75
2022/01/02 01:22:17;;;;;;;9.38;6.22;;;1.90;99.90;;;;;;5074357;28;20187;-75
2022/01/02 01:24:43;;;;;;;15.38;6.85;;;1.80;99.90;;;;;;5090442;28;20210;-75
2022/01/02 01:27:09;;;;;;;14.25;7.68;;;1.70;99.90;;;;;;5088944;28;20176;-76
2022/01/02 01:29:36;;;;;;;10.60;7.07;;;1.60;99.90;;;;;;5091221;28;20175;-76
2022/01/02 01:32:07;;;;;;;14.20;6.88;;;1.50;99.90;;;;;;5089399;28;20164;-76
2022/01/02 01:34:34;;;;;;;10.80;6.65;;;1.40;99.90;;;;;;5089252;28;20195;-75
2022/01/02 01:37:01;;;;;;;12.98;7.18;;;1.40;99.90;;;;;;5088880;28;20164;-74
2022/01/02 01:39:27;;;;;;;11.32;6.78;;;1.30;99.90;;;;;;5087439;28;20200;-74
2022/01/02 01:41:54;;;;;;;14.52;7.40;;;1.20;99.90;;;;;;5088456;28;20220;-75
2022/01/02 01:44:28;;;;;;;10.38;6.43;;;1.10;99.90;;;;;;5087470;28;20196;-75
2022/01/02 01:46:55;;;;;;;10.70;6.82;;;1.10;99.90;;;;;;5087864;28;20168;-75
2022/01/02 01:49:26;;;;;;;15.20;7.40;;;1.00;99.90;;;;;;5089339;28;20160;-75
2022/01/02 01:51:53;;;;;;;11.95;8.40;;;0.90;99.90;;;;;;5088698;28;20169;-75
2022/01/02 01:54:20;;;;;;;20.65;6.45;;;0.90;99.90;;;;;;5092079;28;20191;-74
2022/01/02 01:56:47;;;;;;;9.98;6.75;;;0.80;99.90;;;;;;5092767;28;20206;-74
2022/01/02 01:59:16;;;;;;;13.68;8.18;;;0.80;99.90;;;;;;5092388;28;20220;-74
2022/01/02 02:01:43;;;;;;;12.80;7.60;;;0.70;99.90;;;;;;5091039;28;20168;-75
2022/01/02 02:04:09;;;;;;;11.82;7.45;;;0.70;99.90;;;;;;5091450;28;20303;-75
2022/01/02 02:06:36;;;;;;;12.82;8.35;;;0.60;99.90;;;;;;5091210;28;20191;-74
2022/01/02 02:09:04;;;;;;;11.77;8.27;;;0.60;99.90;;;;;;5092271;28;20179;-74
2022/01/02 02:11:31;;;;;;;15.65;8.57;;;0.60;99.90;;;;;;5090966;28;20254;-75
2022/01/02 02:13:57;;;;;;;14.98;8.13;;;0.60;99.90;;;;;;5091759;28;20198;-75
2022/01/02 02:16:23;;;;;;;14.25;8.63;;;0.50;99.90;;;;;;5092277;28;20219;-75
2022/01/02 02:18:49;;;;;;;13.30;7.63;;;0.50;99.90;;;;;;5090977;28;20183;-74
2022/01/02 02:21:25;;;;;;;13.90;8.50;;;0.50;99.90;;;;;;5090752;28;20188;-75
2022/01/02 02:23:51;;;;;;;13.00;7.35;;;0.50;99.90;;;;;;5092047;28;20267;-75
2022/01/02 02:26:17;;;;;;;17.83;9.90;;;0.50;99.90;;;;;;5092042;28;20156;-75
2022/01/02 02:28:43;;;;;;;13.77;7.72;;;0.60;99.90;;;;;;5091972;28;20236;-76
2022/01/02 02:31:08;;;;;;;16.55;8.02;;;0.60;99.90;;;;;;5091959;28;20231;-76
2022/01/02 02:33:34;;;;;;;11.82;7.55;;;0.60;99.90;;;;;;5091466;28;20215;-74
2022/01/02 02:36:00;;;;;;;13.15;7.80;;;0.50;99.90;;;;;;5091975;28;20180;-74
2022/01/02 02:38:26;;;;;;;10.30;7.22;;;0.50;99.90;;;;;;5090641;28;20163;-75
2022/01/02 02:40:52;;;;;;;11.10;7.63;;;0.50;99.90;;;;;;5091638;28;20188;-74
2022/01/02 02:52:02;;;;;;;10.57;7.45;;;0.60;99.90;;;;;;5071481;28;20175;-75
2022/01/02 02:54:24;;;;;;;11.18;6.78;;;0.70;99.90;;;;;;5085325;28;20214;-75
2022/01/02 02:57:00;;;;;;;14.65;7.80;;;0.70;99.90;;;;;;5091515;28;20210;-75
2022/01/02 02:59:29;;;;;;;11.20;6.95;;;0.60;99.90;;;;;;5089878;28;20249;-74
2022/01/02 03:01:56;;;;;;;14.13;7.65;;;0.50;99.90;;;;;;5090075;28;20168;-75
2022/01/02 03:04:23;;;;;;;10.10;7.30;;;0.50;99.90;;;;;;5088778;28;20203;-75
2022/01/02 03:06:50;;;;;;;14.73;7.50;;;0.40;99.90;;;;;;5089900;28;20179;-74
2022/01/02 03:09:29;;;;;;;7.63;6.07;;;0.30;99.90;;;;;;5091229;28;20175;-75
2022/01/02 03:11:55;;;;;;;14.02;6.88;;;0.30;99.90;;;;;;5091255;28;20220;-75
2022/01/02 03:14:20;;;;;;;21.25;8.05;;;0.30;99.90;;;;;;5089790;28;20656;-75
2022/01/02 03:16:46;;;;;;;10.95;7.53;;;0.20;99.90;;;;;;5091189;28;20164;-75
2022/01/02 03:19:12;;;;;;;12.55;7.63;;;0.10;99.90;;;;;;5090999;28;20202;-76
2022/01/02 03:21:38;;;;;;;11.10;6.47;;;0.10;99.90;;;;;;5091116;28;20688;-75
2022/01/02 03:24:04;;;;;;;11.23;6.68;;;0.10;99.90;;;;;;5090540;28;20255;-74
2022/01/02 03:26:30;;;;;;;14.95;7.47;;;0.00;99.90;;;;;;5090974;28;20182;-75
2022/01/02 03:28:56;;;;;;;13.68;9.30;;;0.00;99.90;;;;;;5089588;28;20185;-75
2022/01/02 03:31:22;;;;;;;12.30;6.57;;;0.00;99.90;;;;;;5090891;28;20157;-73
2022/01/02 03:33:48;;;;;;;11.32;7.38;;;0.00;99.90;;;;;;5090701;28;20187;-75
2022/01/02 03:36:14;;;;;;;10.00;6.80;;;-0.10;99.90;;;;;;5090733;28;20152;-75
2022/01/02 03:38:40;;;;;;;17.42;7.60;;;-0.10;99.90;;;;;;5090719;28;20156;-74
2022/01/02 03:41:06;;;;;;;11.23;7.07;;;0.10;99.90;;;;;;5090659;28;20194;-74
2022/01/02 03:43:32;;;;;;;9.25;6.10;;;0.00;99.90;;;;;;5088814;28;20196;-73
2022/01/02 03:45:58;;;;;;;13.85;7.90;;;0.00;99.90;;;;;;5090438;28;20156;-75
2022/01/02 03:48:24;;;;;;;12.43;6.72;;;0.00;99.90;;;;;;5089129;28;20178;-75
2022/01/02 03:50:50;;;;;;;11.10;5.90;;;0.10;99.90;;;;;;5089062;28;20183;-75
2022/01/02 03:53:16;;;;;;;12.65;6.90;;;0.00;99.90;;;;;;5089892;28;20206;-74
2022/01/02 03:55:41;;;;;;;9.80;7.45;;;-0.10;99.90;;;;;;5089036;28;20160;-75
2022/01/02 03:58:07;;;;;;;9.30;6.20;;;-0.10;99.90;;;;;;5090211;28;20215;-74
2022/01/02 04:00:33;;;;;;;13.80;7.40;;;-0.10;99.90;;;;;;5089036;28;20274;-74
2022/01/02 04:02:59;;;;;;;13.57;7.97;;;0.00;99.90;;;;;;5090146;28;20167;-74
2022/01/02 04:05:25;;;;;;;11.00;7.15;;;0.10;99.90;;;;;;5088793;28;20168;-74
2022/01/02 04:07:51;;;;;;;12.20;6.97;;;0.10;99.90;;;;;;5088822;28;20193;-74
2022/01/02 04:10:18;;;;;;;13.15;7.40;;;0.20;99.90;;;;;;5090087;28;20191;-74
2022/01/02 04:12:44;;;;;;;10.70;6.45;;;0.20;99.90;;;;;;5090058;28;20648;-74
2022/01/02 04:15:12;;;;;;;11.52;7.10;;;0.10;99.90;;;;;;5089578;28;20180;-75
2022/01/02 04:17:38;;;;;;;16.55;8.02;;;0.10;99.90;;;;;;5087704;28;20179;-75
2022/01/02 04:20:07;;;;;;;13.18;7.57;;;0.00;99.90;;;;;;5088576;28;20263;-75
2022/01/02 04:22:33;;;;;;;11.48;7.28;;;-0.10;99.90;;;;;;5089893;28;20167;-75
2022/01/02 04:24:59;;;;;;;9.05;6.88;;;-0.10;99.90;;;;;;5089686;28;20191;-75
2022/01/02 04:27:25;;;;;;;10.70;6.45;;;-0.10;99.90;;;;;;5089794;28;20208;-74
2022/01/02 04:29:52;;;;;;;11.20;7.28;;;-0.20;99.90;;;;;;5088390;28;20177;-74
2022/01/02 04:32:18;;;;;;;10.75;6.95;;;-0.20;99.90;;;;;;5088426;28;20183;-75
2022/01/02 04:34:44;;;;;;;11.70;6.43;;;-0.30;99.90;;;;;;5089207;28;20207;-75
2022/01/02 04:37:11;;;;;;;11.02;6.78;;;-0.30;99.90;;;;;;5088359;28;20186;-75
2022/01/02 04:39:37;;;;;;;14.48;7.03;;;-0.30;99.90;;;;;;5088213;28;20214;-75
2022/01/02 04:42:04;;;;;;;15.18;7.97;;;-0.30;99.90;;;;;;5088111;28;20247;-75
2022/01/02 04:44:29;;;;;;;12.98;7.78;;;-0.30;99.90;;;;;;5088130;28;20204;-75
2022/01/02 04:46:55;;;;;;;13.85;6.68;;;-0.40;99.90;;;;;;5089506;28;20190;-74
2022/01/02 04:49:21;;;;;;;12.45;7.53;;;-0.40;99.90;;;;;;5087881;28;20536;-74
2022/01/02 04:51:47;;;;;;;11.23;7.45;;;-0.40;99.90;;;;;;5088028;28;20168;-74
2022/01/02 04:54:16;;;;;;;15.02;8.35;;;-0.50;99.90;;;;;;5089032;28;20195;-75
2022/01/02 04:56:42;;;;;;;20.30;8.75;;;-0.50;99.90;;;;;;5089336;28;20248;-74
2022/01/02 04:59:08;;;;;;;18.00;9.68;;;-0.30;99.90;;;;;;5088954;28;20232;-74
2022/01/02 05:01:33;;;;;;;19.33;10.63;;;-0.30;99.90;;;;;;5089285;28;20160;-74
2022/01/02 05:04:00;;;;;;;18.70;9.73;;;-0.20;99.90;;;;;;5087551;28;20262;-74
2022/01/02 05:06:25;;;;;;;20.73;9.98;;;-0.10;99.90;;;;;;5089343;28;20156;-75
2022/01/02 05:08:51;;;;;;;16.45;10.32;;;-0.10;99.90;;;;;;5089125;28;20167;-74
2022/01/02 05:11:17;;;;;;;17.48;11.05;;;-0.10;99.90;;;;;;5089129;28;20164;-74
2022/01/02 05:13:44;;;;;;;16.45;10.40;;;-0.10;99.90;;;;;;5087453;28;20203;-74
2022/01/02 05:16:11;;;;;;;14.68;7.88;;;-0.10;99.90;;;;;;5087815;28;20172;-74
2022/01/02 05:18:37;;;;;;;15.13;10.27;;;0.00;99.90;;;;;;5087707;28;20168;-74
2022/01/02 05:21:03;;;;;;;17.40;8.85;;;0.00;99.90;;;;;;5089068;28;20209;-74
2022/01/02 05:23:29;;;;;;;13.32;8.65;;;0.00;99.90;;;;;;5088989;28;20180;-74
2022/01/02 05:25:56;;;;;;;13.50;7.53;;;-0.10;99.90;;;;;;5088967;28;20228;-75
2022/01/02 05:28:23;;;;;;;13.15;8.32;;;-0.10;99.90;;;;;;5089869;28;20235;-75
2022/01/02 05:30:49;;;;;;;13.75;8.90;;;-0.10;99.90;;;;;;5093226;28;20163;-75
2022/01/02 05:33:15;;;;;;;13.10;9.00;;;-0.30;99.90;;;;;;5091747;28;20192;-75
2022/01/02 05:35:42;;;;;;;14.65;9.07;;;-0.30;99.90;;;;;;5091435;28;20201;-75
2022/01/02 05:38:07;;;;;;;17.27;8.25;;;-0.40;99.90;;;;;;5093033;28;20545;-75
2022/01/02 05:40:34;;;;;;;12.13;7.97;;;-0.40;99.90;;;;;;5091361;28;20208;-74
2022/01/02 05:43:05;;;;;;;20.65;10.20;;;-0.50;99.90;;;;;;5092830;28;20172;-74
2022/01/02 05:45:32;;;;;;;15.40;9.25;;;-0.40;99.90;;;;;;5092584;28;20194;-74
2022/01/02 05:47:59;;;;;;;18.60;9.45;;;-0.50;99.90;;;;;;5092777;28;20182;-76
2022/01/02 05:50:25;;;;;;;16.10;8.60;;;-0.40;99.90;;;;;;5092804;28;20157;-75
2022/01/02 05:52:51;;;;;;;14.27;8.43;;;-0.40;99.90;;;;;;5092724;28;20188;-76
2022/01/02 05:55:17;;;;;;;13.95;8.77;;;-0.50;99.90;;;;;;5092307;28;20195;-75
2022/01/02 05:57:43;;;;;;;24.92;11.55;;;-0.60;99.90;;;;;;5091193;28;20198;-75
2022/01/02 06:00:09;;;;;;;15.38;9.88;;;-0.70;99.90;;;;;;5092609;28;20620;-75
2022/01/02 06:02:36;;;;;;;14.05;10.10;;;-0.70;99.90;;;;;;5091332;28;20175;-75
2022/01/02 06:05:03;;;;;;;18.98;9.10;;;-0.70;99.90;;;;;;5092189;28;20211;-75
2022/01/02 06:07:31;;;;;;;17.38;10.20;;;-0.80;99.90;;;;;;5092501;28;20148;-75
2022/01/02 06:09:57;;;;;;;17.80;9.23;;;-0.90;99.90;;;;;;5092436;28;20515;-75
2022/01/02 06:12:23;;;;;;;16.67;8.90;;;-0.80;99.90;;;;;;5092332;28;20251;-75
2022/01/02 06:14:49;;;;;;;18.67;9.85;;;-0.80;99.90;;;;;;5091958;28;20198;-75
2022/01/02 06:17:15;;;;;;;21.80;11.70;;;-0.80;99.90;;;;;;5090895;28;20168;-75
2022/01/02 06:19:41;;;;;;;17.25;9.48;;;-0.80;99.90;;;;;;5090754;28;20219;-75
2022/01/02 06:22:07;;;;;;;19.20;10.45;;;-0.80;99.90;;;;;;5091133;28;20167;-75
2022/01/02 06:24:34;;;;;;;17.10;8.52;;;-0.90;99.90;;;;;;5090448;28;20196;-74
2022/01/02 06:27:00;;;;;;;12.52;8.48;;;-0.90;99.90;;;;;;5090928;28;20167;-75
2022/01/02 06:29:26;;;;;;;21.77;10.38;;;-0.80;99.90;;;;;;5090997;28;20253;-75
2022/01/02 06:31:51;;;;;;;15.82;8.50;;;-0.80;99.90;;;;;;5092066;28;20164;-74
2022/01/02 06:34:17;;;;;;;18.00;9.25;;;-0.80;99.90;;;;;;5091930;28;20194;-75
2022/01/02 06:36:44;;;;;;;21.58;10.30;;;-0.80;99.90;;;;;;5090701;28;20593;-74
2022/01/02 06:39:10;;;;;;;23.42;10.52;;;-0.80;99.90;;;;;;5089512;28;20180;-75
2022/01/02 06:41:35;;;;;;;23.30;9.90;;;-0.80;99.90;;;;;;5090756;28;20628;-75
2022/01/02 06:44:02;;;;;;;19.65;10.20;;;-0.80;99.90;;;;;;5091756;28;20640;-74
2022/01/02 06:46:27;;;;;;;26.52;9.55;;;-0.90;99.90;;;;;;5090024;28;20602;-75
2022/01/02 06:48:54;;;;;;;20.63;10.00;;;-0.80;99.90;;;;;;5090477;28;20160;-74
2022/01/02 06:51:20;;;;;;;18.35;9.77;;;-0.80;99.90;;;;;;5091642;28;20183;-74
2022/01/02 06:53:46;;;;;;;25.15;11.20;;;-0.80;99.90;;;;;;5091674;28;20292;-75
2022/01/02 06:56:12;;;;;;;20.48;10.60;;;-0.70;99.90;;;;;;5091318;28;20184;-74
2022/01/02 06:58:39;;;;;;;20.17;10.10;;;-0.60;99.90;;;;;;5091418;28;20738;-74
2022/01/02 07:01:06;;;;;;;21.58;10.77;;;-0.50;99.90;;;;;;5091448;28;20263;-75
2022/01/02 07:03:33;;;;;;;18.17;11.40;;;-0.50;99.90;;;;;;5091386;28;20192;-74
2022/01/02 07:06:03;;;;;;;21.50;10.73;;;-0.40;99.90;;;;;;5091075;28;20205;-74
2022/01/02 07:08:29;;;;;;;17.23;9.18;;;-0.40;99.90;;;;;;5091207;28;20152;-75
2022/01/02 07:10:55;;;;;;;17.40;10.10;;;-0.30;99.90;;;;;;5089960;28;20229;-75
2022/01/02 07:13:22;;;;;;;13.65;8.80;;;-0.30;99.90;;;;;;5089914;28;20202;-75
2022/01/02 07:15:49;;;;;;;19.63;9.50;;;-0.30;99.90;;;;;;5089747;28;20264;-75
2022/01/02 07:18:15;;;;;;;12.57;7.55;;;-0.30;99.90;;;;;;5091409;28;20244;-76
2022/01/02 07:20:41;;;;;;;16.98;8.85;;;-0.20;99.90;;;;;;5091051;28;20187;-75
2022/01/02 07:23:07;;;;;;;16.15;9.63;;;-0.20;99.90;;;;;;5091416;28;20195;-75
2022/01/02 07:25:33;;;;;;;21.35;9.68;;;-0.20;99.90;;;;;;5090353;28;20255;-75
2022/01/02 07:27:59;;;;;;;11.90;8.35;;;-0.20;99.90;;;;;;5091780;28;20466;-75
2022/01/02 07:30:25;;;;;;;15.05;7.93;;;-0.10;99.90;;;;;;5089959;28;20168;-76
2022/01/02 07:32:50;;;;;;;15.80;9.25;;;-0.10;99.90;;;;;;5090794;28;20219;-76
2022/01/02 07:35:16;;;;;;;17.70;10.43;;;0.00;99.90;;;;;;5090855;28;20656;-76
2022/01/02 07:37:42;;;;;;;19.15;9.50;;;0.10;99.90;;;;;;5089187;28;20166;-76
2022/01/02 07:40:09;;;;;;;16.83;10.07;;;0.30;99.90;;;;;;5089341;28;20191;-76
2022/01/02 07:42:36;;;;;;;17.70;10.30;;;0.40;99.90;;;;;;5089425;28;20160;-77
2022/01/02 07:45:03;;;;;;;16.35;8.95;;;0.50;99.90;;;;;;5090654;28;20187;-75
2022/01/02 07:47:29;;;;;;;13.85;8.65;;;0.60;99.90;;;;;;5088849;28;20180;-77
2022/01/02 07:49:55;;;;;;;17.58;8.85;;;0.80;99.90;;;;;;5090448;28;20156;-77
2022/01/02 07:52:21;;;;;;;22.95;8.98;;;0.90;99.90;;;;;;5090387;28;20164;-75
2022/01/02 07:54:47;;;;;;;19.52;8.50;;;0.90;99.90;;;;;;5090497;28;20191;-76
2022/01/02 07:57:12;;;;;;;12.95;8.18;;;0.70;99.90;;;;;;5088741;28;20258;-76
2022/01/02 07:59:38;;;;;;;13.45;8.38;;;0.80;99.90;;;;;;5090016;28;20224;-76
2022/01/02 08:02:04;;;;;;;15.27;7.97;;;1.00;99.90;;;;;;5088792;28;20217;-75
2022/01/02 08:04:30;;;;;;;15.07;9.55;;;1.10;99.90;;;;;;5088428;28;20196;-75
2022/01/02 08:06:56;;;;;;;16.52;9.95;;;1.40;99.90;;;;;;5088702;28;20191;-75
2022/01/02 08:09:22;;;;;;;16.67;10.32;;;1.60;99.90;;;;;;5088262;28;20174;-75
2022/01/02 08:11:48;;;;;;;16.33;9.65;;;1.80;99.90;;;;;;5088560;28;20172;-73
2022/01/02 08:14:15;;;;;;;20.15;11.77;;;1.90;99.90;;;;;;5089500;28;20215;-75
2022/01/02 08:16:41;;;;;;;24.58;12.82;;;2.30;99.90;;;;;;5088079;28;20207;-75
2022/01/02 08:19:08;;;;;;;26.23;14.48;;;3.60;99.90;;;;;;5089641;28;20164;-73
2022/01/02 08:21:34;;;;;;;30.90;19.80;;;4.90;99.90;;;;;;5088301;28;20156;-77
2022/01/02 08:24:01;;;;;;;36.50;21.83;;;6.80;99.90;;;;;;5089483;28;20196;-76
2022/01/02 08:26:28;;;;;;;31.75;21.58;;;7.50;99.90;;;;;;5087789;28;20191;-77
2022/01/02 08:28:54;;;;;;;30.02;19.88;;;7.30;99.90;;;;;;5088106;28;20171;-78
2022/01/02 08:31:20;;;;;;;29.17;19.85;;;7.80;99.90;;;;;;5089416;28;20624;-73
2022/01/02 08:33:46;;;;;;;29.70;19.50;;;7.80;99.90;;;;;;5088003;28;20676;-74
2022/01/02 08:36:12;;;;;;;22.95;16.55;;;8.00;99.90;;;;;;5088993;28;20240;-76
2022/01/02 08:38:38;;;;;;;22.05;14.82;;;7.20;99.90;;;;;;5080190;28;20255;-76
2022/01/02 08:41:04;;;;;;;23.38;15.80;;;7.00;99.90;;;;;;5074215;28;20263;-74
2022/01/02 08:43:30;;;;;;;24.30;16.17;;;7.60;99.90;;;;;;5089181;28;20192;-76
2022/01/02 08:45:56;;;;;;;18.20;13.43;;;8.80;99.90;;;;;;5087312;28;20164;-75
2022/01/02 08:48:22;;;;;;;13.98;10.63;;;10.10;99.90;;;;;;5067574;28;20191;-74
2022/01/02 08:50:49;;;;;;;11.73;7.75;;;11.00;99.90;;;;;;5069141;28;20169;-75
2022/01/02 08:53:14;;;;;;;8.55;6.63;;;11.40;99.90;;;;;;5086404;28;20226;-76
2022/01/02 08:55:40;;;;;;;8.38;6.40;;;11.40;99.90;;;;;;5087811;28;20176;-76
2022/01/02 08:58:08;;;;;;;6.50;5.07;;;11.00;99.90;;;;;;5088629;28;20247;-76
2022/01/02 09:00:35;;;;;;;7.40;5.10;;;10.90;99.90;;;;;;5087678;28;20207;-76
2022/01/02 09:03:01;;;;;;;8.23;4.75;;;10.90;99.90;;;;;;5086925;28;20172;-76
2022/01/02 09:05:27;;;;;;;5.70;4.45;;;11.30;99.90;;;;;;5087595;28;20162;-76
2022/01/02 09:07:54;;;;;;;9.13;5.03;;;11.60;99.90;;;;;;5087487;28;20191;-75
2022/01/02 09:10:21;;;;;;;6.57;4.93;;;11.30;99.90;;;;;;5078202;28;20184;-76
2022/01/02 09:12:48;;;;;;;7.47;5.22;;;11.60;99.90;;;;;;5082988;28;20330;-76
2022/01/02 09:15:13;;;;;;;6.47;4.88;;;12.40;99.90;;;;;;5086754;28;20176;-75
2022/01/02 09:17:39;;;;;;;8.77;6.22;;;12.80;99.90;;;;;;5087066;28;20238;-75
2022/01/02 09:20:10;;;;;;;6.72;5.07;;;12.80;99.90;;;;;;5087159;28;20230;-75
2022/01/02 09:22:43;;;;;;;9.30;5.85;;;13.00;99.90;;;;;;5087239;28;20196;-75
2022/01/02 09:25:10;;;;;;;8.25;6.57;;;12.40;99.90;;;;;;5087453;28;20192;-76
2022/01/02 09:27:37;;;;;;;10.48;7.00;;;11.50;99.90;;;;;;5086997;28;20244;-75
2022/01/02 09:30:05;;;;;;;11.25;5.50;;;11.00;99.90;;;;;;5087296;28;20667;-75
2022/01/02 09:32:34;;;;;;;8.90;5.88;;;10.60;99.90;;;;;;5088825;28;20215;-74
2022/01/02 09:35:05;;;;;;;11.68;6.90;;;10.80;99.90;;;;;;5088512;28;20190;-77
2022/01/02 09:37:31;;;;;;;9.85;7.30;;;11.20;99.90;;;;;;5087431;28;20228;-76
2022/01/02 09:39:57;;;;;;;8.75;6.82;;;11.30;99.90;;;;;;5088761;28;20210;-76
2022/01/02 09:42:24;;;;;;;9.15;6.43;;;10.90;99.90;;;;;;5087203;28;20175;-76
2022/01/02 09:44:50;;;;;;;7.50;5.75;;;11.10;99.90;;;;;;5087112;28;20218;-76
2022/01/02 09:47:20;;;;;;;7.03;5.40;;;11.20;99.90;;;;;;5088173;28;20176;-76
2022/01/02 09:49:47;;;;;;;7.93;5.88;;;10.70;99.90;;;;;;5087205;28;20563;-77
2022/01/02 09:52:13;;;;;;;8.35;5.38;;;10.80;99.90;;;;;;5088353;28;20186;-76
2022/01/02 09:54:39;;;;;;;6.60;5.50;;;11.00;99.90;;;;;;5085985;28;20172;-75
2022/01/02 09:57:05;;;;;;;8.70;6.38;;;11.20;99.90;;;;;;5085600;28;20203;-76
2022/01/02 09:59:32;;;;;;;10.15;5.95;;;10.90;99.90;;;;;;5080621;28;20292;-76
2022/01/02 10:01:59;;;;;;;7.22;5.28;;;11.70;99.90;;;;;;5092626;28;20179;-76
2022/01/02 10:04:42;;;;;;;10.95;6.40;;;12.00;99.90;;;;;;5074783;28;20256;-77
2022/01/02 10:07:31;;;;;;;8.63;5.85;;;11.50;99.90;;;;;;5089474;28;20188;-76
2022/01/02 10:10:06;;;;;;;9.00;7.00;;;11.60;99.90;;;;;;5086220;28;20169;-76
2022/01/02 10:12:32;;;;;;;8.18;6.03;;;11.90;99.90;;;;;;5083742;28;20216;-76
2022/01/02 10:15:23;;;;;;;9.23;6.38;;;11.80;99.90;;;;;;5070884;28;20241;-76
2022/01/02 10:18:11;;;;;;;8.45;6.05;;;12.20;99.90;;;;;;5081862;28;20519;-76
2022/01/02 10:20:43;;;;;;;9.50;6.30;;;12.70;99.90;;;;;;5074384;28;20212;-76
2022/01/02 10:23:16;;;;;;;8.00;5.85;;;12.70;99.90;;;;;;5071940;28;20175;-76
2022/01/02 10:25:49;;;;;;;8.35;5.18;;;13.20;99.90;;;;;;5072012;28;20183;-75
2022/01/02 10:28:26;;;;;;;7.97;5.90;;;13.10;99.90;;;;;;5076318;28;20608;-75
2022/01/02 10:30:55;;;;;;;8.32;5.35;;;13.40;99.90;;;;;;5071374;28;20572;-76
2022/01/02 10:33:21;;;;;;;6.72;5.47;;;14.10;99.90;;;;;;5070376;28;20664;-75
2022/01/02 10:35:56;;;;;;;9.48;5.13;;;13.90;99.90;;;;;;5071620;28;20214;-75
2022/01/02 10:38:22;;;;;;;6.65;4.90;;;13.90;99.90;;;;;;5071619;28;20640;-75
2022/01/02 10:40:48;;;;;;;6.35;4.53;;;13.20;99.90;;;;;;5071383;28;20204;-75
2022/01/02 10:43:30;;;;;;;7.43;5.30;;;12.70;99.90;;;;;;5070301;28;20672;-75
2022/01/02 10:45:58;;;;;;;9.15;5.03;;;12.30;99.90;;;;;;5071294;28;20168;-74
2022/01/02 10:48:42;;;;;;;9.68;4.97;;;12.50;99.90;;;;;;5084202;28;20176;-75
2022/01/02 10:51:10;;;;;;;10.50;5.63;;;13.60;99.90;;;;;;5089996;28;20282;-75
2022/01/02 10:53:38;;;;;;;9.38;5.55;;;13.90;99.90;;;;;;5091395;28;20171;-75
2022/01/02 10:56:06;;;;;;;8.93;5.43;;;13.70;99.90;;;;;;5091375;28;20227;-75
2022/01/02 10:58:33;;;;;;;7.35;4.97;;;13.70;99.90;;;;;;5090542;28;20245;-75
2022/01/02 11:01:08;;;;;;;8.02;5.63;;;13.50;99.90;;;;;;5091114;28;20290;-75
2022/01/02 11:03:34;;;;;;;7.53;5.22;;;12.90;99.90;;;;;;5091492;28;20175;-75
2022/01/02 11:06:09;;;;;;;10.05;5.63;;;13.00;99.90;;;;;;5093696;28;20167;-75
2022/01/02 11:08:36;;;;;;;8.50;6.25;;;13.60;99.90;;;;;;5096505;28;20197;-75
2022/01/02 11:11:06;;;;;;;8.68;5.97;;;13.70;99.90;;;;;;5089654;28;20234;-75
2022/01/02 11:13:33;;;;;;;8.32;5.40;;;13.00;99.90;;;;;;5088390;28;20243;-75
2022/01/02 11:16:03;;;;;;;9.52;6.07;;;13.00;99.90;;;;;;5087629;28;20195;-75
2022/01/02 11:18:34;;;;;;;10.05;5.90;;;13.00;99.90;;;;;;5084804;28;20592;-75
2022/01/02 11:21:02;;;;;;;11.18;5.28;;;13.00;99.90;;;;;;5083388;28;20199;-75
2022/01/02 11:23:55;;;;;;;7.45;5.18;;;12.60;99.90;;;;;;5070697;28;20252;-75
2022/01/02 11:26:39;;;;;;;9.57;6.55;;;12.90;99.90;;;;;;5068875;28;20255;-76
2022/01/02 11:29:06;;;;;;;7.25;5.15;;;12.60;99.90;;;;;;5086068;28;20172;-75
2022/01/02 11:31:38;;;;;;;11.77;5.82;;;12.50;99.90;;;;;;5089252;28;20206;-76
2022/01/02 11:34:32;;;;;;;8.18;5.85;;;12.80;99.90;;;;;;5088218;28;20176;-76
2022/01/02 11:37:14;;;;;;;8.43;5.30;;;13.80;99.90;;;;;;5090322;28;20198;-76
2022/01/02 11:39:58;;;;;;;6.45;4.97;;;13.30;99.90;;;;;;5090029;28;20196;-77
2022/01/02 11:42:36;;;;;;;16.00;6.85;;;12.90;99.90;;;;;;5090281;28;20617;-76
2022/01/02 11:45:06;;;;;;;6.05;5.03;;;13.00;99.90;;;;;;5090301;28;20186;-74
2022/01/02 11:47:46;;;;;;;8.50;5.32;;;13.60;99.90;;;;;;5088271;28;20164;-74
2022/01/02 11:50:31;;;;;;;8.90;4.82;;;13.60;99.90;;;;;;5068699;28;20232;-76
2022/01/02 11:53:12;;;;;;;10.63;5.70;;;13.90;99.90;;;;;;5070304;28;20674;-74
2022/01/02 11:55:39;;;;;;;9.85;4.85;;;14.40;99.90;;;;;;5081083;28;20235;-74
2022/01/02 11:58:06;;;;;;;9.38;5.57;;;14.80;99.90;;;;;;5080466;28;20208;-73
2022/01/02 12:00:41;;;;;;;14.05;6.00;;;15.40;99.90;;;;;;5078748;28;20261;-74
2022/01/02 12:03:42;;;;;;;7.45;4.85;;;15.30;99.90;;;;;;5078042;28;20156;-74
2022/01/02 12:06:33;;;;;;;8.35;4.93;;;14.90;99.90;;;;;;5079380;28;20194;-74
2022/01/02 12:09:02;;;;;;;8.00;4.85;;;15.20;99.90;;;;;;5079708;28;20537;-75
2022/01/02 12:11:31;;;;;;;7.72;5.68;;;15.60;99.90;;;;;;5079343;28;20184;-76
2022/01/02 12:14:17;;;;;;;16.30;5.40;;;16.00;99.90;;;;;;5072282;28;20172;-76
2022/01/02 12:16:52;;;;;;;7.78;4.80;;;16.00;99.90;;;;;;5068442;28;20251;-76
2022/01/02 12:19:18;;;;;;;12.55;5.00;;;16.00;99.90;;;;;;5082728;28;20199;-77
2022/01/02 12:22:10;;;;;;;9.27;5.55;;;16.10;99.90;;;;;;5089480;28;20148;-78
2022/01/02 12:24:36;;;;;;;8.70;5.22;;;16.70;99.90;;;;;;5089716;28;20201;-79
2022/01/02 12:27:14;;;;;;;7.47;4.95;;;16.90;99.90;;;;;;5088158;28;20182;-78
2022/01/02 12:29:40;;;;;;;8.57;5.05;;;16.60;99.90;;;;;;5087689;28;20207;-78
2022/01/02 12:32:07;;;;;;;6.38;4.60;;;16.80;99.90;;;;;;5088190;28;20198;-78
2022/01/02 12:34:34;;;;;;;9.73;5.47;;;15.50;99.90;;;;;;5089319;28;20224;-78
2022/01/02 12:37:01;;;;;;;8.85;5.63;;;15.10;99.90;;;;;;5087474;28;20183;-78
2022/01/02 12:39:33;;;;;;;12.13;5.75;;;13.80;99.90;;;;;;5087722;28;20206;-78
2022/01/02 12:42:08;;;;;;;7.25;4.53;;;12.80;99.90;;;;;;5089394;28;20212;-77
2022/01/02 12:44:36;;;;;;;11.80;4.75;;;12.00;99.90;;;;;;5089154;28;20159;-77
2022/01/02 12:47:04;;;;;;;9.45;5.30;;;11.60;99.90;;;;;;5087944;28;20200;-78
2022/01/02 12:49:35;;;;;;;6.93;5.15;;;11.30;99.90;;;;;;5086508;28;20265;-76
2022/01/02 12:52:14;;;;;;;6.43;4.78;;;10.80;99.90;;;;;;5089117;28;20159;-78
2022/01/02 12:54:45;;;;;;;7.90;4.97;;;10.50;99.90;;;;;;5089152;28;20155;-78
2022/01/02 12:57:14;;;;;;;14.32;5.25;;;10.70;99.90;;;;;;5087911;28;20259;-78
2022/01/02 12:59:42;;;;;;;7.95;4.68;;;10.80;99.90;;;;;;5088324;28;20242;-78